Time;durP1;ratioP1;P1;durP2;ratioP2;P2;SDS_P1;SDS_P2;PMS_P1;PMS_P2;Temp;Humidity;BMP_temperature;BMP_pressure;BME280_temperature;BME280_humidity;BME280_pressure;Samples;Min_cycle;Max_cycle;Signal;HPM_P1;HPM_P2
2022/07/01 00:02:16;;;;;;;14.10;2.00;;;14.90;99.90;;;;;;5066909;28;20512;-84
2022/07/01 00:04:42;;;;;;;6.75;1.10;;;14.90;99.90;;;;;;5067706;28;20045;-85
2022/07/01 00:07:07;;;;;;;6.78;1.23;;;14.90;99.90;;;;;;5035702;28;20045;-83
2022/07/01 00:09:33;;;;;;;9.38;1.60;;;14.90;99.90;;;;;;5066675;28;20551;-83
2022/07/01 00:11:59;;;;;;;4.15;0.95;;;14.90;99.90;;;;;;5035828;28;20046;-84
2022/07/01 00:14:24;;;;;;;5.13;1.27;;;14.90;99.90;;;;;;5067424;28;20073;-84
2022/07/01 00:16:51;;;;;;;3.38;0.90;;;14.90;99.90;;;;;;5034861;28;20077;-85
2022/07/01 00:19:17;;;;;;;7.68;1.00;;;14.90;99.90;;;;;;5035533;28;20041;-84
2022/07/01 00:21:43;;;;;;;5.30;0.90;;;14.90;99.90;;;;;;5066925;28;20509;-84
2022/07/01 00:24:09;;;;;;;5.75;1.10;;;14.90;99.90;;;;;;5034579;28;20084;-84
2022/07/01 00:26:35;;;;;;;8.85;1.33;;;15.00;99.90;;;;;;5035357;28;20096;-84
2022/07/01 00:29:01;;;;;;;7.13;1.00;;;15.00;99.90;;;;;;5034279;28;20042;-84
2022/07/01 00:31:26;;;;;;;5.80;0.90;;;15.00;99.90;;;;;;5034309;28;20041;-85
2022/07/01 00:33:52;;;;;;;5.00;0.90;;;15.00;99.90;;;;;;5035049;28;20076;-84
2022/07/01 00:36:18;;;;;;;9.98;1.20;;;15.10;99.90;;;;;;5034292;28;20482;-83
2022/07/01 00:38:43;;;;;;;3.65;0.95;;;15.00;99.90;;;;;;5067111;28;20057;-84
2022/07/01 00:41:09;;;;;;;9.70;1.60;;;15.10;99.90;;;;;;5066960;28;20050;-83
2022/07/01 00:43:38;;;;;;;4.18;1.00;;;15.00;99.90;;;;;;5033119;28;20150;-84
2022/07/01 00:46:04;;;;;;;4.72;0.90;;;15.00;99.90;;;;;;5033878;28;20524;-84
2022/07/01 00:48:32;;;;;;;4.93;1.95;;;15.00;99.90;;;;;;5067708;28;20462;-85
2022/07/01 00:50:58;;;;;;;3.85;1.30;;;15.00;99.90;;;;;;5052584;28;20094;-83
2022/07/01 00:53:25;;;;;;;2.63;1.00;;;14.90;99.90;;;;;;5054218;28;20056;-83
2022/07/01 00:55:51;;;;;;;2.53;0.80;;;14.90;99.90;;;;;;5035421;28;20043;-83
2022/07/01 00:58:17;;;;;;;4.35;0.80;;;14.90;99.90;;;;;;5032844;28;20400;-83
2022/07/01 01:00:43;;;;;;;2.95;0.80;;;14.90;99.90;;;;;;5034144;28;20159;-86
2022/07/01 01:03:11;;;;;;;3.13;1.23;;;14.90;99.90;;;;;;5034574;28;20041;-84
2022/07/01 01:05:40;;;;;;;1.10;0.57;;;14.90;99.90;;;;;;5032923;28;20052;-84
2022/07/01 01:08:09;;;;;;;1.55;0.98;;;14.80;99.90;;;;;;5034261;28;20057;-84
2022/07/01 01:10:37;;;;;;;3.00;1.00;;;14.80;99.90;;;;;;5053170;28;20128;-85
2022/07/01 01:13:03;;;;;;;1.55;0.70;;;14.80;99.90;;;;;;5085789;28;20045;-85
2022/07/01 01:15:30;;;;;;;2.85;1.13;;;14.80;99.90;;;;;;5069110;28;20049;-85
2022/07/01 01:17:56;;;;;;;3.10;1.10;;;14.80;99.90;;;;;;5033686;28;20052;-85
2022/07/01 01:20:22;;;;;;;4.25;1.08;;;14.80;99.90;;;;;;5033577;28;20030;-86
2022/07/01 01:22:48;;;;;;;3.70;1.23;;;14.80;99.90;;;;;;5034453;28;20496;-85
2022/07/01 01:25:15;;;;;;;2.63;1.13;;;14.80;99.90;;;;;;5033378;28;20038;-85
2022/07/01 01:27:41;;;;;;;2.75;1.20;;;14.80;99.90;;;;;;5066090;28;20179;-85
2022/07/01 01:30:09;;;;;;;6.22;1.10;;;14.80;99.90;;;;;;5033726;28;20128;-85
2022/07/01 01:32:35;;;;;;;2.97;1.30;;;14.80;99.90;;;;;;5053027;28;20041;-84
2022/07/01 01:35:02;;;;;;;4.65;1.23;;;14.80;99.90;;;;;;5054005;28;20048;-85
2022/07/01 01:37:27;;;;;;;7.53;1.83;;;14.80;99.90;;;;;;5035166;28;20107;-84
2022/07/01 01:39:54;;;;;;;3.40;1.15;;;14.80;99.90;;;;;;5033156;28;20452;-84
2022/07/01 01:42:21;;;;;;;9.48;1.95;;;14.80;99.90;;;;;;5034280;28;20091;-84
2022/07/01 01:44:47;;;;;;;4.53;1.23;;;14.80;99.90;;;;;;5035055;28;20053;-84
2022/07/01 01:47:13;;;;;;;6.28;1.13;;;14.80;99.90;;;;;;5033012;28;20052;-83
2022/07/01 01:49:39;;;;;;;5.03;1.40;;;14.80;99.90;;;;;;5033936;28;20041;-84
2022/07/01 01:52:05;;;;;;;9.40;1.48;;;14.80;99.90;;;;;;5053629;28;20452;-84
2022/07/01 01:54:30;;;;;;;2.67;1.20;;;14.80;99.90;;;;;;5052958;28;20094;-84
2022/07/01 01:56:56;;;;;;;5.45;1.33;;;14.80;99.90;;;;;;5045621;28;20484;-83
2022/07/01 01:59:22;;;;;;;2.95;1.20;;;14.80;99.90;;;;;;5053534;28;20106;-83
2022/07/01 02:01:47;;;;;;;2.85;1.50;;;14.80;99.90;;;;;;5067596;28;20045;-84
2022/07/01 02:04:13;;;;;;;2.55;1.20;;;14.80;99.90;;;;;;5032687;28;20441;-83
2022/07/01 02:06:42;;;;;;;5.35;1.45;;;14.80;99.90;;;;;;5034394;28;20089;-83
2022/07/01 02:09:08;;;;;;;3.47;1.70;;;14.90;99.90;;;;;;5064480;28;20053;-83
2022/07/01 02:11:35;;;;;;;9.30;1.30;;;14.80;99.90;;;;;;5033853;28;20071;-84
2022/07/01 02:14:00;;;;;;;11.25;3.15;;;14.80;99.90;;;;;;5065785;28;20053;-83
2022/07/01 02:16:27;;;;;;;5.20;1.77;;;14.80;99.90;;;;;;5048211;28;20075;-83
2022/07/01 02:18:53;;;;;;;2.08;1.67;;;14.80;99.90;;;;;;5085708;28;20052;-83
2022/07/01 02:21:18;;;;;;;5.72;2.10;;;14.80;99.90;;;;;;5038496;28;20394;-83
2022/07/01 02:23:44;;;;;;;3.75;1.92;;;14.80;99.90;;;;;;5064723;28;20042;-83
2022/07/01 02:26:10;;;;;;;4.53;1.83;;;14.80;99.90;;;;;;5033458;28;20034;-84
2022/07/01 02:28:36;;;;;;;8.10;2.20;;;14.80;99.90;;;;;;5031519;28;20481;-84
2022/07/01 02:31:04;;;;;;;10.13;2.63;;;14.80;99.90;;;;;;5033439;28;20045;-83
2022/07/01 02:33:31;;;;;;;12.23;3.00;;;14.80;99.90;;;;;;5048421;28;20056;-84
2022/07/01 02:35:57;;;;;;;10.77;2.40;;;14.80;99.90;;;;;;5032649;28;20041;-84
2022/07/01 02:38:23;;;;;;;19.85;5.13;;;14.70;99.90;;;;;;5065333;28;20413;-84
2022/07/01 02:40:48;;;;;;;5.78;2.75;;;14.70;99.90;;;;;;5065666;28;20045;-83
2022/07/01 02:43:15;;;;;;;17.10;4.45;;;14.70;99.90;;;;;;5032757;28;20048;-84
2022/07/01 02:45:42;;;;;;;9.55;2.45;;;14.70;99.90;;;;;;5065138;28;20089;-83
2022/07/01 02:48:08;;;;;;;11.90;2.45;;;14.70;99.90;;;;;;5033266;28;20045;-83
2022/07/01 02:50:34;;;;;;;3.17;2.08;;;14.70;99.90;;;;;;5032486;28;20455;-83
2022/07/01 02:53:00;;;;;;;2.78;1.77;;;14.70;99.90;;;;;;5065326;28;20077;-84
2022/07/01 02:55:26;;;;;;;5.13;2.38;;;14.70;99.90;;;;;;5065259;28;20128;-83
2022/07/01 02:57:52;;;;;;;3.90;2.30;;;14.70;99.90;;;;;;5032608;28;20099;-83
2022/07/01 03:00:19;;;;;;;5.25;2.42;;;14.70;99.90;;;;;;5034444;28;20464;-84
2022/07/01 03:02:45;;;;;;;6.18;2.55;;;14.60;99.90;;;;;;5052773;28;20480;-83
2022/07/01 03:05:11;;;;;;;4.78;2.30;;;14.60;99.90;;;;;;5064727;28;20050;-84
2022/07/01 03:07:38;;;;;;;9.43;2.67;;;14.70;99.90;;;;;;5031669;28;20119;-83
2022/07/01 03:10:05;;;;;;;5.13;2.53;;;14.70;99.90;;;;;;5082381;28;20045;-84
2022/07/01 03:12:34;;;;;;;8.95;2.88;;;14.60;99.90;;;;;;5084388;28;20106;-84
2022/07/01 03:15:09;;;;;;;4.78;2.60;;;14.60;99.90;;;;;;5035620;28;20046;-84
2022/07/01 03:17:38;;;;;;;9.40;2.80;;;14.60;99.90;;;;;;5033116;28;20120;-83
2022/07/01 03:20:05;;;;;;;5.93;2.78;;;14.60;99.90;;;;;;5032530;28;20386;-84
2022/07/01 03:22:32;;;;;;;6.40;2.47;;;14.60;99.90;;;;;;5034876;28;20096;-84
2022/07/01 03:24:58;;;;;;;5.13;2.20;;;14.50;99.90;;;;;;5035766;28;20393;-84
2022/07/01 03:27:25;;;;;;;4.20;2.13;;;14.60;99.90;;;;;;5051585;28;20574;-84
2022/07/01 03:29:51;;;;;;;3.47;2.30;;;14.50;99.90;;;;;;5036429;28;20103;-84
2022/07/01 03:32:17;;;;;;;6.45;2.88;;;14.60;99.90;;;;;;5067397;28;20073;-84
2022/07/01 03:34:45;;;;;;;16.33;4.28;;;14.60;99.90;;;;;;5036367;28;20073;-84
2022/07/01 03:37:12;;;;;;;3.22;2.60;;;14.60;99.90;;;;;;5051751;28;20087;-84
2022/07/01 03:39:39;;;;;;;12.55;4.65;;;14.50;99.90;;;;;;5081342;28;20056;-84
2022/07/01 03:42:06;;;;;;;7.25;3.00;;;14.50;99.90;;;;;;5043321;28;20041;-84
2022/07/01 03:44:33;;;;;;;4.68;3.25;;;14.50;99.90;;;;;;5068312;28;20037;-84
2022/07/01 03:46:59;;;;;;;5.20;3.13;;;14.50;99.90;;;;;;5063003;28;20128;-84
2022/07/01 03:49:26;;;;;;;6.20;3.15;;;14.50;99.90;;;;;;5088532;28;20051;-84
2022/07/01 03:51:52;;;;;;;8.32;3.03;;;14.50;99.90;;;;;;5046216;28;20192;-84
2022/07/01 03:54:30;;;;;;;7.47;3.20;;;14.40;99.90;;;;;;5067039;28;20045;-84
2022/07/01 03:57:01;;;;;;;7.45;2.78;;;14.40;99.90;;;;;;5068736;28;20103;-84
2022/07/01 03:59:27;;;;;;;4.68;2.65;;;14.40;99.90;;;;;;5035870;28;20121;-84
2022/07/01 04:01:57;;;;;;;6.38;3.08;;;14.30;99.90;;;;;;5034973;28;20099;-84
2022/07/01 04:04:24;;;;;;;7.82;3.97;;;14.30;99.90;;;;;;5067912;28;20045;-84
2022/07/01 04:06:52;;;;;;;7.32;2.83;;;14.30;99.90;;;;;;5067599;28;20053;-84
2022/07/01 04:09:18;;;;;;;7.35;3.90;;;14.40;99.90;;;;;;5033937;28;20048;-84
2022/07/01 04:11:47;;;;;;;5.45;3.63;;;14.40;99.90;;;;;;5076238;28;20382;-84
2022/07/01 04:14:13;;;;;;;12.65;4.22;;;14.40;99.90;;;;;;5033760;28;20166;-83
2022/07/01 04:16:39;;;;;;;5.60;3.70;;;14.40;99.90;;;;;;5034450;28;20084;-84
2022/07/01 04:19:07;;;;;;;8.30;4.38;;;14.40;99.90;;;;;;5067647;28;20167;-84
2022/07/01 04:24:17;;;;;;;9.17;4.63;;;14.40;99.90;;;;;;5087866;28;20098;-84
2022/07/01 04:26:43;;;;;;;8.15;4.50;;;14.40;99.90;;;;;;5079533;28;20084;-84
2022/07/01 04:29:10;;;;;;;9.82;4.97;;;14.40;99.90;;;;;;5066406;28;20099;-84
2022/07/01 04:31:37;;;;;;;6.13;4.80;;;14.50;99.90;;;;;;5042066;28;20041;-84
2022/07/01 04:34:04;;;;;;;10.52;4.95;;;14.50;99.90;;;;;;5055019;28;20114;-84
2022/07/01 04:36:30;;;;;;;11.77;5.13;;;14.50;99.90;;;;;;5087709;28;20040;-84
2022/07/01 04:38:56;;;;;;;6.40;4.97;;;14.50;99.90;;;;;;5054852;28;20109;-83
2022/07/01 04:44:09;;;;;;;6.80;5.85;;;14.60;99.90;;;;;;5034124;28;20128;-84
2022/07/01 04:46:35;;;;;;;10.57;6.80;;;14.60;99.90;;;;;;5033912;28;20128;-84
2022/07/01 04:49:01;;;;;;;13.20;8.82;;;14.60;99.90;;;;;;5034723;28;20045;-83
2022/07/01 04:51:28;;;;;;;13.15;9.23;;;14.60;99.90;;;;;;5069360;28;20594;-84
2022/07/01 04:53:54;;;;;;;14.82;9.80;;;14.60;99.90;;;;;;5054953;28;20049;-84
2022/07/01 04:56:20;;;;;;;23.13;11.40;;;14.60;99.90;;;;;;5051450;28;20433;-83
2022/07/01 04:58:45;;;;;;;16.27;11.52;;;14.60;99.90;;;;;;5034805;28;20132;-84
2022/07/01 05:01:11;;;;;;;16.63;11.50;;;14.60;99.90;;;;;;5034423;28;20040;-84
2022/07/01 05:03:38;;;;;;;19.63;12.65;;;14.60;99.90;;;;;;5054022;28;20830;-84
2022/07/01 05:06:04;;;;;;;16.80;12.45;;;14.60;99.90;;;;;;5066456;28;20045;-83
2022/07/01 05:08:30;;;;;;;24.65;14.88;;;14.70;99.90;;;;;;5033119;28;20068;-83
2022/07/01 05:10:56;;;;;;;23.13;16.15;;;14.70;99.90;;;;;;5034142;28;20069;-83
2022/07/01 05:13:23;;;;;;;33.40;17.90;;;14.70;99.90;;;;;;5034305;28;20484;-83
2022/07/01 05:15:49;;;;;;;29.02;16.65;;;14.80;99.90;;;;;;5038672;28;20041;-83
2022/07/01 05:23:43;;;;;;;26.95;17.90;;;14.80;99.90;;;;;;5034393;28;20100;-82
2022/07/01 05:26:09;;;;;;;37.50;20.80;;;14.80;99.90;;;;;;5039249;28;20076;-83
2022/07/01 05:28:34;;;;;;;37.97;21.27;;;14.80;99.90;;;;;;5054124;28;20503;-82
2022/07/01 05:31:00;;;;;;;76.00;23.80;;;14.80;99.90;;;;;;5044694;28;20100;-82
2022/07/01 05:33:26;;;;;;;30.27;20.67;;;14.80;99.90;;;;;;5032159;28;20119;-82
2022/07/01 05:35:53;;;;;;;32.50;21.75;;;14.80;99.90;;;;;;5074499;28;20033;-82
2022/07/01 05:38:19;;;;;;;38.63;22.15;;;14.90;99.90;;;;;;5052408;28;20041;-82
2022/07/01 05:40:44;;;;;;;30.90;21.73;;;14.90;99.90;;;;;;5080348;28;20401;-83
2022/07/01 05:43:11;;;;;;;30.05;22.45;;;14.90;99.90;;;;;;5033705;28;20077;-83
2022/07/01 05:45:37;;;;;;;42.95;24.92;;;14.90;99.90;;;;;;5020275;28;20395;-83
2022/07/01 05:48:03;;;;;;;33.95;23.25;;;14.90;99.90;;;;;;5053682;28;20131;-84
2022/07/01 05:50:29;;;;;;;35.78;24.40;;;15.00;99.90;;;;;;5068910;28;20036;-81
2022/07/01 05:52:54;;;;;;;33.63;22.08;;;15.00;99.90;;;;;;5056148;28;20117;-81
2022/07/01 05:55:20;;;;;;;40.75;23.25;;;15.00;99.90;;;;;;5058367;28;20049;-85
2022/07/01 05:57:46;;;;;;;32.72;23.67;;;15.00;99.90;;;;;;5057812;28;20473;-81
2022/07/01 06:00:13;;;;;;;35.90;23.75;;;15.10;99.90;;;;;;5059852;28;20041;-83
2022/07/01 06:02:38;;;;;;;38.05;27.38;;;15.10;99.90;;;;;;5053200;28;20134;-81
2022/07/01 06:05:05;;;;;;;32.63;24.48;;;15.20;99.90;;;;;;5051889;28;20492;-80
2022/07/01 06:07:31;;;;;;;39.47;24.58;;;15.20;99.90;;;;;;5052420;28;20492;-80
2022/07/01 06:09:57;;;;;;;27.80;23.40;;;15.20;99.90;;;;;;5052142;28;20044;-80
2022/07/01 06:12:23;;;;;;;40.00;25.58;;;15.20;99.90;;;;;;5051979;28;20060;-80
2022/07/01 06:14:49;;;;;;;36.05;24.17;;;15.20;99.90;;;;;;5050632;28;20041;-81
2022/07/01 06:17:16;;;;;;;36.38;25.08;;;15.20;99.90;;;;;;5051911;28;20080;-81
2022/07/01 06:19:42;;;;;;;49.13;26.67;;;15.30;99.90;;;;;;5034168;28;20046;-81
2022/07/01 06:22:08;;;;;;;35.42;24.30;;;15.30;99.90;;;;;;5031162;28;20563;-81
2022/07/01 06:24:34;;;;;;;39.83;27.33;;;15.30;99.90;;;;;;5051069;28;20488;-81
2022/07/01 06:27:00;;;;;;;33.22;24.40;;;15.40;99.90;;;;;;5085423;28;20055;-81
2022/07/01 06:29:27;;;;;;;38.03;25.50;;;15.40;99.90;;;;;;5034732;28;20043;-81
2022/07/01 06:31:53;;;;;;;104.00;33.00;;;15.40;99.90;;;;;;5033375;28;20045;-81
2022/07/01 06:34:20;;;;;;;29.23;23.83;;;15.40;99.90;;;;;;5032441;28;20045;-81
2022/07/01 06:36:45;;;;;;;35.50;24.92;;;15.40;99.90;;;;;;5032609;28;20374;-82
2022/07/01 06:39:11;;;;;;;30.50;23.45;;;15.40;99.90;;;;;;5038711;28;20087;-81
2022/07/01 06:41:37;;;;;;;28.13;22.83;;;15.40;99.90;;;;;;5051146;28;20037;-81
2022/07/01 06:44:04;;;;;;;34.53;23.67;;;15.50;99.90;;;;;;5040197;28;20140;-81
2022/07/01 06:46:31;;;;;;;35.33;24.50;;;15.50;99.90;;;;;;5031951;28;20056;-82
2022/07/01 06:48:58;;;;;;;35.60;25.20;;;15.60;99.90;;;;;;5032630;28;20614;-82
2022/07/01 06:51:24;;;;;;;29.45;22.60;;;15.60;99.90;;;;;;5032819;28;20053;-82
2022/07/01 06:53:50;;;;;;;30.25;24.15;;;15.70;99.90;;;;;;5033152;28;20064;-82
2022/07/01 06:56:17;;;;;;;42.88;26.42;;;15.70;99.90;;;;;;5031882;28;20048;-81
2022/07/01 06:58:43;;;;;;;28.52;22.25;;;15.70;99.90;;;;;;5037653;28;20057;-82
2022/07/01 07:01:10;;;;;;;32.40;22.05;;;15.70;99.90;;;;;;5036816;28;20029;-82
2022/07/01 07:03:36;;;;;;;32.78;22.55;;;15.70;99.90;;;;;;5034717;28;20504;-81
2022/07/01 07:06:03;;;;;;;34.95;23.77;;;15.70;99.90;;;;;;5036135;28;20091;-81
2022/07/01 07:08:30;;;;;;;34.35;23.42;;;15.80;99.90;;;;;;5036311;28;20118;-81
2022/07/01 07:10:56;;;;;;;67.22;27.95;;;15.80;99.90;;;;;;5061824;28;20053;-81
2022/07/01 07:13:22;;;;;;;35.25;25.13;;;15.80;99.90;;;;;;5052417;28;20051;-81
2022/07/01 07:15:47;;;;;;;33.10;24.63;;;15.80;99.90;;;;;;5018810;28;20055;-81
2022/07/01 07:18:13;;;;;;;28.63;23.15;;;15.80;99.90;;;;;;5067990;28;20057;-80
2022/07/01 07:20:39;;;;;;;27.55;22.75;;;15.80;99.90;;;;;;5035275;28;20045;-80
2022/07/01 07:23:05;;;;;;;30.05;24.48;;;15.90;99.90;;;;;;5068097;28;20045;-80
2022/07/01 07:25:31;;;;;;;26.17;23.33;;;15.90;99.90;;;;;;5036918;28;20132;-80
2022/07/01 07:27:57;;;;;;;31.02;24.30;;;16.00;99.90;;;;;;5035288;28;20426;-80
2022/07/01 07:30:23;;;;;;;36.17;25.15;;;16.00;99.90;;;;;;5035398;28;20536;-80
2022/07/01 07:32:49;;;;;;;37.63;23.65;;;16.00;99.90;;;;;;5050288;28;20096;-80
2022/07/01 07:35:15;;;;;;;24.95;22.05;;;16.10;99.90;;;;;;5056286;28;20081;-82
2022/07/01 07:37:42;;;;;;;29.23;22.08;;;16.10;99.90;;;;;;5039933;28;20049;-81
2022/07/01 07:40:11;;;;;;;28.90;22.02;;;16.10;99.90;;;;;;5034276;28;20482;-80
2022/07/01 07:42:38;;;;;;;24.05;20.63;;;16.10;99.90;;;;;;5018527;28;20128;-81
2022/07/01 07:45:08;;;;;;;25.38;20.30;;;16.20;99.90;;;;;;5035994;28;20086;-80
2022/07/01 07:47:35;;;;;;;26.00;20.10;;;16.20;99.90;;;;;;5043414;28;20107;-80
2022/07/01 07:50:02;;;;;;;23.25;19.45;;;16.30;99.90;;;;;;5054148;28;20048;-80
2022/07/01 07:52:28;;;;;;;23.95;18.40;;;16.30;99.90;;;;;;5049245;28;20048;-80
2022/07/01 07:54:54;;;;;;;23.77;18.50;;;16.40;99.90;;;;;;5053924;28;20051;-80
2022/07/01 07:57:19;;;;;;;22.92;17.38;;;16.40;99.90;;;;;;5046504;28;20406;-79
2022/07/01 07:59:45;;;;;;;17.73;15.50;;;16.40;99.90;;;;;;5040324;28;20045;-80
2022/07/01 08:02:11;;;;;;;21.70;16.33;;;16.40;99.90;;;;;;5042146;28;20086;-79
2022/07/01 08:04:37;;;;;;;21.73;17.17;;;16.40;99.90;;;;;;5055428;28;20096;-80
2022/07/01 08:07:03;;;;;;;21.20;16.98;;;16.40;99.90;;;;;;5052572;28;20136;-80
2022/07/01 08:09:29;;;;;;;19.85;17.30;;;16.40;99.90;;;;;;5049376;28;20076;-80
2022/07/01 08:11:55;;;;;;;23.95;17.85;;;16.40;99.90;;;;;;5051070;28;20512;-80
2022/07/01 08:14:21;;;;;;;26.38;17.85;;;16.50;99.90;;;;;;5050435;28;20397;-80
2022/07/01 08:16:47;;;;;;;24.00;17.88;;;16.60;99.90;;;;;;5018317;28;20046;-82
2022/07/01 08:19:13;;;;;;;19.85;15.32;;;16.70;99.90;;;;;;5033757;28;20060;-80
2022/07/01 08:21:38;;;;;;;18.42;15.43;;;16.70;99.90;;;;;;5052385;28;20048;-82
2022/07/01 08:24:04;;;;;;;21.75;16.25;;;16.80;99.90;;;;;;5053873;28;20052;-80
2022/07/01 08:26:30;;;;;;;25.65;16.27;;;16.90;99.90;;;;;;5039690;28;20116;-80
2022/07/01 08:28:56;;;;;;;24.20;14.85;;;17.00;99.90;;;;;;5033339;28;20180;-83
2022/07/01 08:31:22;;;;;;;14.70;13.20;;;17.10;99.90;;;;;;5045117;28;20060;-82
2022/07/01 08:33:48;;;;;;;20.25;14.00;;;17.10;99.90;;;;;;5053590;28;20048;-81
2022/07/01 08:36:13;;;;;;;18.98;12.77;;;17.10;99.90;;;;;;5034771;28;20046;-81
2022/07/01 08:38:40;;;;;;;21.08;12.00;;;17.20;99.90;;;;;;5066997;28;20041;-81
2022/07/01 08:41:07;;;;;;;18.15;13.82;;;17.20;99.90;;;;;;5033856;28;20115;-81
2022/07/01 08:43:34;;;;;;;16.40;12.00;;;17.30;99.90;;;;;;5041160;28;20044;-80
2022/07/01 08:46:03;;;;;;;19.42;13.00;;;17.40;99.90;;;;;;5083138;28;20044;-80
2022/07/01 08:48:30;;;;;;;15.95;11.48;;;17.40;99.90;;;;;;5049932;28;20033;-80
2022/07/01 08:50:56;;;;;;;16.75;11.15;;;17.40;99.90;;;;;;5034833;28;20053;-80
2022/07/01 08:53:22;;;;;;;12.80;9.88;;;17.50;99.90;;;;;;5035331;28;20041;-80
2022/07/01 08:58:33;;;;;;;16.83;9.50;;;17.70;99.90;;;;;;5056032;28;20124;-82
2022/07/01 09:01:23;;;;;;;16.60;8.95;;;17.70;99.90;;;;;;5054373;28;20041;-80
2022/07/01 09:03:53;;;;;;;15.63;6.93;;;17.60;99.90;;;;;;5033131;28;20049;-80
2022/07/01 09:06:22;;;;;;;14.50;7.25;;;17.60;99.90;;;;;;5070582;28;20044;-80
2022/07/01 09:08:48;;;;;;;12.35;6.55;;;17.60;99.90;;;;;;5037669;28;20056;-81
2022/07/01 09:11:22;;;;;;;10.93;6.05;;;17.70;99.90;;;;;;5068577;28;20047;-81
2022/07/01 09:14:12;;;;;;;13.77;7.35;;;17.80;99.90;;;;;;5034325;28;20049;-80
2022/07/01 09:16:46;;;;;;;11.65;6.07;;;17.70;99.90;;;;;;5066359;28;20053;-80
2022/07/01 09:19:14;;;;;;;10.32;4.90;;;17.70;99.90;;;;;;5040134;28;20048;-82
2022/07/01 09:21:40;;;;;;;11.07;4.90;;;17.70;99.90;;;;;;5066900;28;20041;-81
2022/07/01 09:24:28;;;;;;;13.57;5.85;;;17.80;99.90;;;;;;5045180;28;20051;-80
2022/07/01 09:27:13;;;;;;;10.40;4.72;;;17.80;99.90;;;;;;5054376;28;20041;-82
2022/07/01 09:29:41;;;;;;;;;;;17.80;99.90;;;;;;5047478;28;20052;-81
2022/07/01 09:32:09;;;;;;;10.13;4.28;;;17.80;99.90;;;;;;5074771;28;19921;-83
2022/07/01 09:34:45;;;;;;;11.95;4.43;;;17.80;99.90;;;;;;5036379;28;20116;-84
2022/07/01 09:37:16;;;;;;;8.75;3.58;;;17.90;99.90;;;;;;5034354;28;20444;-81
2022/07/01 09:39:46;;;;;;;13.00;3.72;;;18.00;99.90;;;;;;5039944;28;20119;-81
2022/07/01 09:42:12;;;;;;;8.88;4.28;;;18.10;99.90;;;;;;5046187;28;20489;-81
2022/07/01 09:45:07;;;;;;;9.85;4.22;;;18.20;99.90;;;;;;5033399;28;20048;-81
2022/07/01 09:47:34;;;;;;;11.50;5.20;;;18.20;99.90;;;;;;5070172;28;20126;-83
2022/07/01 09:50:02;;;;;;;10.68;4.20;;;18.20;99.90;;;;;;5053751;28;20068;-82
2022/07/01 09:52:28;;;;;;;10.63;4.75;;;18.30;99.90;;;;;;5039978;28;20045;-84
2022/07/01 09:54:54;;;;;;;14.55;5.20;;;18.30;99.90;;;;;;5048893;28;20393;-81
2022/07/01 09:57:22;;;;;;;9.90;4.78;;;18.30;99.90;;;;;;5073758;28;20045;-83
2022/07/01 09:59:48;;;;;;;10.25;4.53;;;18.30;99.90;;;;;;5032824;28;20386;-83
2022/07/01 10:02:19;;;;;;;6.80;3.92;;;18.30;99.90;;;;;;5033794;28;20106;-81
2022/07/01 10:04:56;;;;;;;6.13;3.60;;;18.20;99.90;;;;;;5032305;28;20128;-82
2022/07/01 10:07:28;;;;;;;10.73;4.30;;;18.10;99.90;;;;;;5086949;28;20179;-81
2022/07/01 10:10:19;;;;;;;9.07;4.38;;;18.10;99.90;;;;;;5069205;28;20053;-81
2022/07/01 10:12:56;;;;;;;11.18;4.38;;;18.00;99.90;;;;;;5032606;28;20075;-81
2022/07/01 10:15:22;;;;;;;9.88;4.10;;;18.00;99.90;;;;;;5069076;28;20640;-81
2022/07/01 10:17:51;;;;;;;8.77;3.08;;;18.10;99.90;;;;;;5048682;28;20048;-83
2022/07/01 10:20:25;;;;;;;18.00;3.17;;;18.30;99.90;;;;;;5031390;28;20053;-82
2022/07/01 10:23:03;;;;;;;11.15;3.80;;;18.40;99.90;;;;;;5048613;28;20044;-83
2022/07/01 10:25:32;;;;;;;4.53;1.75;;;18.50;99.90;;;;;;5053932;28;20055;-82
2022/07/01 10:28:20;;;;;;;11.68;2.00;;;18.30;99.90;;;;;;5070803;28;20072;-80
2022/07/01 10:31:05;;;;;;;10.07;2.20;;;18.00;99.90;;;;;;5050372;28;20431;-86
2022/07/01 10:33:48;;;;;;;5.15;1.42;;;17.60;99.90;;;;;;5036314;28;20111;-84
2022/07/01 10:36:22;;;;;;;4.63;1.10;;;17.30;99.90;;;;;;5041542;28;20080;-86
2022/07/01 10:39:01;;;;;;;5.82;1.27;;;17.00;99.90;;;;;;5037144;28;20049;-84
2022/07/01 10:41:31;;;;;;;4.22;1.10;;;16.80;99.90;;;;;;5068263;28;20092;-85
2022/07/01 10:43:58;;;;;;;5.38;1.30;;;16.60;99.90;;;;;;5087532;28;20048;-85
2022/07/01 10:46:47;;;;;;;3.42;1.13;;;16.50;99.90;;;;;;5053666;28;20076;-84
2022/07/01 10:49:45;;;;;;;6.60;1.58;;;16.40;99.90;;;;;;5035912;28;20045;-85
2022/07/01 10:52:15;;;;;;;6.13;1.55;;;16.30;99.90;;;;;;5032602;28;20092;-85
2022/07/01 10:54:42;;;;;;;2.95;1.10;;;16.20;99.90;;;;;;5036873;28;20485;-85
2022/07/01 10:57:23;;;;;;;3.22;1.00;;;16.20;99.90;;;;;;5049745;28;20073;-85
2022/07/01 10:59:53;;;;;;;4.15;0.82;;;16.20;99.90;;;;;;5058184;28;20041;-84
2022/07/01 11:02:22;;;;;;;4.03;1.15;;;16.20;99.90;;;;;;5060775;28;20566;-84
2022/07/01 11:04:49;;;;;;;6.05;1.35;;;16.30;99.90;;;;;;5047575;28;20136;-84
2022/07/01 11:07:15;;;;;;;5.47;1.23;;;16.40;99.90;;;;;;5036421;28;20124;-84
2022/07/01 11:09:41;;;;;;;5.43;1.13;;;16.50;99.90;;;;;;5036202;28;20061;-84
2022/07/01 11:12:07;;;;;;;2.78;1.30;;;16.60;99.90;;;;;;5035372;28;20180;-81
2022/07/01 11:14:38;;;;;;;1.80;1.05;;;16.80;99.90;;;;;;5036500;28;20489;-80
2022/07/01 11:17:05;;;;;;;6.22;1.55;;;17.00;99.90;;;;;;5048312;28;20047;-81
2022/07/01 11:19:31;;;;;;;7.65;1.30;;;17.20;99.90;;;;;;5065376;28;20452;-81
2022/07/01 11:21:56;;;;;;;3.33;1.27;;;17.20;99.90;;;;;;5056453;28;20032;-81
2022/07/01 11:24:23;;;;;;;4.85;1.48;;;17.30;99.90;;;;;;5051097;28;20041;-80
2022/07/01 11:26:50;;;;;;;7.55;1.73;;;17.30;99.90;;;;;;5036279;28;20098;-81
2022/07/01 11:29:27;;;;;;;6.65;1.58;;;17.40;99.90;;;;;;5069362;28;20049;-81
2022/07/01 11:31:53;;;;;;;4.40;1.50;;;17.50;99.90;;;;;;5035356;28;20564;-81
2022/07/01 11:34:19;;;;;;;9.70;2.00;;;17.70;99.90;;;;;;5036084;28;20135;-81
2022/07/01 11:39:34;;;;;;;5.30;1.23;;;17.90;99.90;;;;;;5036901;28;20401;-83
2022/07/01 11:42:06;;;;;;;4.07;0.98;;;18.00;99.90;;;;;;5035219;28;20045;-82
2022/07/01 11:44:34;;;;;;;4.45;1.10;;;18.00;99.90;;;;;;5035719;28;20045;-82
2022/07/01 11:47:02;;;;;;;12.93;1.67;;;18.00;99.90;;;;;;5036503;28;20102;-79
2022/07/01 11:49:27;;;;;;;2.65;0.82;;;18.00;99.90;;;;;;5068202;28;20405;-84
2022/07/01 11:52:05;;;;;;;7.45;1.33;;;18.10;99.90;;;;;;5035154;28;20045;-83
2022/07/01 11:54:35;;;;;;;3.97;1.00;;;18.10;99.90;;;;;;5068197;28;20045;-82
2022/07/01 11:57:16;;;;;;;4.40;0.90;;;18.10;99.90;;;;;;5082185;28;20045;-85
2022/07/01 11:59:43;;;;;;;2.28;0.52;;;18.20;99.90;;;;;;5042309;28;20183;-82
2022/07/01 12:02:11;;;;;;;9.07;0.80;;;18.20;99.90;;;;;;5035412;28;20041;-80
2022/07/01 12:04:38;;;;;;;3.05;1.00;;;18.30;99.90;;;;;;5036397;28;20120;-82
2022/07/01 12:07:05;;;;;;;4.47;0.70;;;18.30;99.90;;;;;;5067354;28;20057;-82
2022/07/01 12:09:31;;;;;;;3.95;0.82;;;18.40;99.90;;;;;;5067693;28;20049;-82
2022/07/01 12:11:57;;;;;;;4.25;0.77;;;18.50;99.90;;;;;;5076265;28;20037;-83
2022/07/01 12:14:29;;;;;;;3.15;0.90;;;18.40;99.90;;;;;;5034735;28;20053;-86
2022/07/01 12:17:08;;;;;;;6.18;1.02;;;18.50;99.90;;;;;;5067050;28;20532;-83
2022/07/01 12:19:41;;;;;;;3.08;1.00;;;18.60;99.90;;;;;;5067045;28;20088;-83
2022/07/01 12:22:10;;;;;;;6.85;1.38;;;18.80;99.90;;;;;;5034715;28;20072;-86
2022/07/01 12:24:36;;;;;;;4.60;0.93;;;18.80;99.90;;;;;;5067533;28;20068;-87
2022/07/01 12:27:05;;;;;;;8.40;1.30;;;18.90;99.90;;;;;;5034292;28;20038;-85
2022/07/01 12:29:50;;;;;;;8.30;1.88;;;18.90;99.90;;;;;;5067798;28;20047;-83
2022/07/01 12:32:22;;;;;;;5.03;1.23;;;18.90;99.90;;;;;;5035270;28;20051;-84
2022/07/01 12:34:59;;;;;;;3.25;1.02;;;18.80;99.90;;;;;;5066252;28;20049;-84
2022/07/01 12:37:29;;;;;;;3.30;0.70;;;18.80;99.90;;;;;;5053734;28;20047;-84
2022/07/01 12:40:02;;;;;;;4.50;0.82;;;18.70;99.90;;;;;;5087236;28;20048;-84
2022/07/01 12:42:39;;;;;;;4.53;0.85;;;18.90;99.90;;;;;;5072204;28;20041;-85
2022/07/01 12:45:11;;;;;;;5.88;0.95;;;19.00;99.90;;;;;;5034888;28;20037;-84
2022/07/01 12:47:48;;;;;;;4.50;0.90;;;19.20;99.90;;;;;;5034568;28;20049;-82
2022/07/01 12:50:27;;;;;;;6.30;1.20;;;19.30;99.90;;;;;;5050018;28;20049;-84
2022/07/01 12:53:03;;;;;;;4.60;1.00;;;19.40;99.90;;;;;;5066634;28;20053;-83
2022/07/01 12:55:33;;;;;;;9.00;1.25;;;19.50;99.90;;;;;;5050178;28;20495;-82
2022/07/01 12:58:00;;;;;;;5.75;1.15;;;19.50;99.90;;;;;;5036489;28;20397;-83
2022/07/01 13:00:28;;;;;;;5.32;0.93;;;19.60;99.90;;;;;;5054225;28;20128;-83
2022/07/01 13:02:56;;;;;;;7.55;1.10;;;19.70;99.90;;;;;;5033868;28;20060;-83